sensor_id;sensor_type;location;lat;lon;timestamp;pressure;altitude;pressure_sealevel;temperature;humidity
56074;BME280;41950;55.840;37.442;2023-04-15T00:01:22;100762.78;;;1.07;28.29
56074;BME280;41950;55.840;37.442;2023-04-15T00:03:51;100798.53;;;1.28;28.35
56074;BME280;41950;55.840;37.442;2023-04-15T00:06:17;100807.19;;;1.31;28.09
56074;BME280;41950;55.840;37.442;2023-04-15T00:08:44;100814.91;;;1.33;28.39
56074;BME280;41950;55.840;37.442;2023-04-15T00:11:10;100813.00;;;1.27;28.43
56074;BME280;41950;55.840;37.442;2023-04-15T00:13:37;100794.53;;;1.12;28.71
56074;BME280;41950;55.840;37.442;2023-04-15T00:16:04;100817.72;;;1.16;28.52
56074;BME280;41950;55.840;37.442;2023-04-15T00:18:31;100824.69;;;1.20;28.47
56074;BME280;41950;55.840;37.442;2023-04-15T00:20:57;100831.38;;;1.17;28.59
56074;BME280;41950;55.840;37.442;2023-04-15T00:23:23;100810.38;;;1.03;28.67
56074;BME280;41950;55.840;37.442;2023-04-15T00:25:49;100822.28;;;1.03;28.83
56074;BME280;41950;55.840;37.442;2023-04-15T00:28:15;100834.41;;;1.08;28.93
56074;BME280;41950;55.840;37.442;2023-04-15T00:30:42;100842.03;;;1.07;28.83
56074;BME280;41950;55.840;37.442;2023-04-15T00:33:08;100845.28;;;1.03;28.93
56074;BME280;41950;55.840;37.442;2023-04-15T00:35:34;100846.03;;;1.00;29.03
56074;BME280;41950;55.840;37.442;2023-04-15T00:38:03;100825.94;;;0.87;28.70
56074;BME280;41950;55.840;37.442;2023-04-15T00:40:29;100858.59;;;0.94;28.97
56074;BME280;41950;55.840;37.442;2023-04-15T00:42:55;100844.81;;;0.90;29.25
56074;BME280;41950;55.840;37.442;2023-04-15T00:45:21;100864.28;;;0.87;28.91
56074;BME280;41950;55.840;37.442;2023-04-15T00:47:46;100845.75;;;0.72;29.25
56074;BME280;41950;55.840;37.442;2023-04-15T00:50:12;100823.13;;;0.60;29.11
56074;BME280;41950;55.840;37.442;2023-04-15T00:52:38;100838.69;;;0.66;29.29
56074;BME280;41950;55.840;37.442;2023-04-15T00:55:05;100865.56;;;0.77;29.22
56074;BME280;41950;55.840;37.442;2023-04-15T00:57:31;100846.19;;;0.61;29.17
56074;BME280;41950;55.840;37.442;2023-04-15T00:59:57;100874.84;;;0.75;29.61
56074;BME280;41950;55.840;37.442;2023-04-15T01:02:24;100868.69;;;0.70;29.47
56074;BME280;41950;55.840;37.442;2023-04-15T01:04:50;100885.00;;;0.74;29.18
56074;BME280;41950;55.840;37.442;2023-04-15T01:07:16;100864.06;;;0.61;28.99
56074;BME280;41950;55.840;37.442;2023-04-15T01:09:42;100882.88;;;0.64;29.35
56074;BME280;41950;55.840;37.442;2023-04-15T01:12:11;100883.06;;;0.68;29.25
56074;BME280;41950;55.840;37.442;2023-04-15T01:14:37;100891.53;;;0.67;29.07
56074;BME280;41950;55.840;37.442;2023-04-15T01:17:03;100881.94;;;0.61;29.27
56074;BME280;41950;55.840;37.442;2023-04-15T01:19:28;100890.44;;;0.60;29.33
56074;BME280;41950;55.840;37.442;2023-04-15T01:21:55;100871.06;;;0.46;29.51
56074;BME280;41950;55.840;37.442;2023-04-15T01:24:22;100900.59;;;0.59;29.06
56074;BME280;41950;55.840;37.442;2023-04-15T01:26:49;100847.13;;;0.23;29.18
56074;BME280;41950;55.840;37.442;2023-04-15T01:29:14;100895.25;;;0.54;29.24
56074;BME280;41950;55.840;37.442;2023-04-15T01:31:47;100889.75;;;0.45;29.44
56074;BME280;41950;55.840;37.442;2023-04-15T01:34:32;100890.38;;;0.40;29.45
56074;BME280;41950;55.840;37.442;2023-04-15T01:37:17;100912.81;;;0.47;29.38
56074;BME280;41950;55.840;37.442;2023-04-15T01:39:42;100893.50;;;0.33;29.38
56074;BME280;41950;55.840;37.442;2023-04-15T01:42:09;100893.50;;;0.33;29.25
56074;BME280;41950;55.840;37.442;2023-04-15T01:44:35;100905.56;;;0.37;29.32
56074;BME280;41950;55.840;37.442;2023-04-15T01:47:02;100891.44;;;0.25;29.67
56074;BME280;41950;55.840;37.442;2023-04-15T01:49:29;100893.06;;;0.23;29.47
56074;BME280;41950;55.840;37.442;2023-04-15T01:51:56;100918.28;;;0.35;29.50
56074;BME280;41950;55.840;37.442;2023-04-15T01:54:23;100926.00;;;0.37;29.68
56074;BME280;41950;55.840;37.442;2023-04-15T01:56:50;100908.53;;;0.26;29.60
56074;BME280;41950;55.840;37.442;2023-04-15T01:59:17;100911.06;;;0.26;29.57
56074;BME280;41950;55.840;37.442;2023-04-15T02:01:44;100924.25;;;0.36;29.62
56074;BME280;41950;55.840;37.442;2023-04-15T02:04:12;100910.88;;;0.22;29.45
56074;BME280;41950;55.840;37.442;2023-04-15T02:06:44;100924.88;;;0.30;29.44
56074;BME280;41950;55.840;37.442;2023-04-15T02:09:11;100921.97;;;0.22;29.56
56074;BME280;41950;55.840;37.442;2023-04-15T02:11:38;100934.78;;;0.24;29.93
56074;BME280;41950;55.840;37.442;2023-04-15T02:14:05;100910.41;;;0.11;29.93
56074;BME280;41950;55.840;37.442;2023-04-15T02:16:32;100941.50;;;0.22;29.61
56074;BME280;41950;55.840;37.442;2023-04-15T02:18:59;100920.44;;;0.07;29.94
56074;BME280;41950;55.840;37.442;2023-04-15T02:21:26;100944.81;;;0.19;29.92
56074;BME280;41950;55.840;37.442;2023-04-15T02:23:53;100929.03;;;0.09;30.13
56074;BME280;41950;55.840;37.442;2023-04-15T02:26:20;100946.47;;;0.19;30.24
56074;BME280;41950;55.840;37.442;2023-04-15T02:28:48;100924.53;;;0.03;29.90
56074;BME280;41950;55.840;37.442;2023-04-15T02:31:16;100949.03;;;0.19;29.95
56074;BME280;41950;55.840;37.442;2023-04-15T02:33:43;100959.13;;;0.16;30.19
56074;BME280;41950;55.840;37.442;2023-04-15T02:36:10;100942.38;;;0.03;30.24
56074;BME280;41950;55.840;37.442;2023-04-15T02:38:38;100970.94;;;0.14;30.00
56074;BME280;41950;55.840;37.442;2023-04-15T02:41:10;100942.91;;;-0.04;30.18
56074;BME280;41950;55.840;37.442;2023-04-15T02:43:37;100966.56;;;0.11;30.37
56074;BME280;41950;55.840;37.442;2023-04-15T02:46:05;100983.63;;;0.12;30.34
56074;BME280;41950;55.840;37.442;2023-04-15T02:48:32;100973.34;;;0.11;30.50
56074;BME280;41950;55.840;37.442;2023-04-15T02:51:16;100962.56;;;-0.02;30.57
56074;BME280;41950;55.840;37.442;2023-04-15T02:53:46;100979.88;;;0.04;30.50
56074;BME280;41950;55.840;37.442;2023-04-15T02:56:13;101000.50;;;0.09;30.26
56074;BME280;41950;55.840;37.442;2023-04-15T02:58:41;100999.75;;;0.11;30.70
56074;BME280;41950;55.840;37.442;2023-04-15T03:01:08;100957.06;;;-0.11;30.59
56074;BME280;41950;55.840;37.442;2023-04-15T03:03:35;100985.84;;;0.05;30.46
56074;BME280;41950;55.840;37.442;2023-04-15T03:06:02;101007.69;;;0.17;30.45
56074;BME280;41950;55.840;37.442;2023-04-15T03:08:29;100984.16;;;0.05;30.71
56074;BME280;41950;55.840;37.442;2023-04-15T03:10:57;100981.69;;;0.07;30.73
56074;BME280;41950;55.840;37.442;2023-04-15T03:13:26;101002.72;;;0.20;30.54
56074;BME280;41950;55.840;37.442;2023-04-15T03:15:53;101011.13;;;0.18;30.40
56074;BME280;41950;55.840;37.442;2023-04-15T03:18:20;101015.41;;;0.19;30.50
56074;BME280;41950;55.840;37.442;2023-04-15T03:20:47;100993.50;;;0.05;30.39
56074;BME280;41950;55.840;37.442;2023-04-15T03:23:14;100959.69;;;-0.09;30.20
56074;BME280;41950;55.840;37.442;2023-04-15T03:25:41;101009.63;;;0.23;30.53
56074;BME280;41950;55.840;37.442;2023-04-15T03:28:07;101020.78;;;0.25;30.44
56074;BME280;41950;55.840;37.442;2023-04-15T03:30:34;100999.91;;;0.14;30.65
56074;BME280;41950;55.840;37.442;2023-04-15T03:33:01;101007.16;;;0.24;30.41
56074;BME280;41950;55.840;37.442;2023-04-15T03:35:28;101013.06;;;0.23;30.50
56074;BME280;41950;55.840;37.442;2023-04-15T03:37:55;101013.50;;;0.33;30.34
56074;BME280;41950;55.840;37.442;2023-04-15T03:40:21;101016.78;;;0.30;30.37
56074;BME280;41950;55.840;37.442;2023-04-15T03:42:48;101017.59;;;0.29;30.08
56074;BME280;41950;55.840;37.442;2023-04-15T03:45:15;101022.09;;;0.35;30.13
56074;BME280;41950;55.840;37.442;2023-04-15T03:47:42;101015.13;;;0.30;30.54
56074;BME280;41950;55.840;37.442;2023-04-15T03:50:09;101033.66;;;0.46;30.27
56074;BME280;41950;55.840;37.442;2023-04-15T03:52:36;101034.66;;;0.49;30.19
56074;BME280;41950;55.840;37.442;2023-04-15T03:55:04;100985.28;;;0.29;29.95
56074;BME280;41950;55.840;37.442;2023-04-15T03:57:31;101015.84;;;0.47;30.08
56074;BME280;41950;55.840;37.442;2023-04-15T04:00:04;101025.63;;;0.56;30.07
56074;BME280;41950;55.840;37.442;2023-04-15T04:02:31;101032.88;;;0.66;30.05
56074;BME280;41950;55.840;37.442;2023-04-15T04:04:58;101039.78;;;0.69;29.80
56074;BME280;41950;55.840;37.442;2023-04-15T04:07:25;101040.88;;;0.74;29.73
56074;BME280;41950;55.840;37.442;2023-04-15T04:09:52;101044.63;;;0.82;29.77
56074;BME280;41950;55.840;37.442;2023-04-15T04:12:18;101040.75;;;0.90;29.85
56074;BME280;41950;55.840;37.442;2023-04-15T04:14:45;101047.97;;;1.00;29.79
56074;BME280;41950;55.840;37.442;2023-04-15T04:17:12;101049.66;;;1.00;29.55
56074;BME280;41950;55.840;37.442;2023-04-15T04:19:39;101045.38;;;0.99;29.37
56074;BME280;41950;55.840;37.442;2023-04-15T04:22:06;101053.56;;;1.11;29.32
56074;BME280;41950;55.840;37.442;2023-04-15T04:24:33;101067.31;;;1.13;29.51
56074;BME280;41950;55.840;37.442;2023-04-15T04:27:00;101055.44;;;1.15;29.49
56074;BME280;41950;55.840;37.442;2023-04-15T04:29:27;101021.97;;;0.89;29.59
56074;BME280;41950;55.840;37.442;2023-04-15T04:31:54;101061.44;;;1.15;29.36
56074;BME280;41950;55.840;37.442;2023-04-15T04:34:21;101061.69;;;1.21;29.40
56074;BME280;41950;55.840;37.442;2023-04-15T04:36:48;101051.41;;;1.20;29.47
56074;BME280;41950;55.840;37.442;2023-04-15T04:39:15;101045.22;;;1.15;29.43
56074;BME280;41950;55.840;37.442;2023-04-15T04:41:41;101008.56;;;0.95;29.53
56074;BME280;41950;55.840;37.442;2023-04-15T04:44:08;101067.66;;;1.41;29.36
56074;BME280;41950;55.840;37.442;2023-04-15T04:46:35;101050.84;;;1.27;29.25
56074;BME280;41950;55.840;37.442;2023-04-15T04:49:02;101071.44;;;1.30;29.04
56074;BME280;41950;55.840;37.442;2023-04-15T04:51:29;101016.16;;;1.13;29.29
56074;BME280;41950;55.840;37.442;2023-04-15T04:53:56;101042.75;;;1.37;28.88
56074;BME280;41950;55.840;37.442;2023-04-15T04:56:24;101063.97;;;1.55;29.32
56074;BME280;41950;55.840;37.442;2023-04-15T04:58:51;101063.66;;;1.69;28.99
56074;BME280;41950;55.840;37.442;2023-04-15T05:01:18;101070.88;;;1.58;28.32
56074;BME280;41950;55.840;37.442;2023-04-15T05:03:45;101042.94;;;1.42;28.66
56074;BME280;41950;55.840;37.442;2023-04-15T05:06:12;101017.03;;;1.34;28.77
56074;BME280;41950;55.840;37.442;2023-04-15T05:08:39;101067.41;;;1.77;28.71
56074;BME280;41950;55.840;37.442;2023-04-15T05:11:06;101039.19;;;1.75;28.38
56074;BME280;41950;55.840;37.442;2023-04-15T05:13:34;101066.81;;;2.05;28.67
56074;BME280;41950;55.840;37.442;2023-04-15T05:16:05;101076.34;;;2.09;28.55
56074;BME280;41950;55.840;37.442;2023-04-15T05:18:32;101070.47;;;2.11;28.22
56074;BME280;41950;55.840;37.442;2023-04-15T05:20:59;101038.81;;;2.09;28.46
56074;BME280;41950;55.840;37.442;2023-04-15T05:23:26;101067.09;;;2.35;28.31
56074;BME280;41950;55.840;37.442;2023-04-15T05:25:53;101032.53;;;2.24;28.21
56074;BME280;41950;55.840;37.442;2023-04-15T05:28:20;101060.56;;;2.43;28.27
56074;BME280;41950;55.840;37.442;2023-04-15T05:30:47;101071.69;;;2.43;27.83
56074;BME280;41950;55.840;37.442;2023-04-15T05:33:14;101050.63;;;2.28;28.15
56074;BME280;41950;55.840;37.442;2023-04-15T05:35:41;101063.50;;;2.30;27.74
56074;BME280;41950;55.840;37.442;2023-04-15T05:38:08;101065.53;;;2.38;27.75
56074;BME280;41950;55.840;37.442;2023-04-15T05:40:35;101072.88;;;2.52;27.55
56074;BME280;41950;55.840;37.442;2023-04-15T05:43:07;101038.09;;;2.36;27.76
56074;BME280;41950;55.840;37.442;2023-04-15T05:45:37;101064.31;;;2.51;27.59
56074;BME280;41950;55.840;37.442;2023-04-15T05:48:04;101082.75;;;2.65;27.87
56074;BME280;41950;55.840;37.442;2023-04-15T05:50:31;101080.28;;;2.68;27.72
56074;BME280;41950;55.840;37.442;2023-04-15T05:52:57;101072.66;;;2.69;27.73
56074;BME280;41950;55.840;37.442;2023-04-15T05:55:24;101049.69;;;2.72;27.67
56074;BME280;41950;55.840;37.442;2023-04-15T05:57:51;101079.59;;;2.96;27.33
56074;BME280;41950;55.840;37.442;2023-04-15T06:00:18;101076.31;;;3.00;27.18
56074;BME280;41950;55.840;37.442;2023-04-15T06:02:45;101083.28;;;3.02;27.02
56074;BME280;41950;55.840;37.442;2023-04-15T06:05:12;101085.91;;;3.04;27.10
56074;BME280;41950;55.840;37.442;2023-04-15T06:07:39;101079.41;;;2.90;26.59
56074;BME280;41950;55.840;37.442;2023-04-15T06:10:07;101077.81;;;2.93;26.91
56074;BME280;41950;55.840;37.442;2023-04-15T06:12:34;101086.84;;;3.06;27.11
56074;BME280;41950;55.840;37.442;2023-04-15T06:15:01;101067.75;;;2.99;26.74
56074;BME280;41950;55.840;37.442;2023-04-15T06:17:29;101065.59;;;2.86;26.65
56074;BME280;41950;55.840;37.442;2023-04-15T06:19:56;101095.28;;;3.03;26.59
56074;BME280;41950;55.840;37.442;2023-04-15T06:22:23;101106.84;;;3.16;26.52
56074;BME280;41950;55.840;37.442;2023-04-15T06:24:50;101078.47;;;3.12;26.52
56074;BME280;41950;55.840;37.442;2023-04-15T06:27:17;101078.13;;;3.26;26.97
56074;BME280;41950;55.840;37.442;2023-04-15T06:29:44;101098.94;;;3.59;26.26
56074;BME280;41950;55.840;37.442;2023-04-15T06:32:11;101109.25;;;3.61;26.12
56074;BME280;41950;55.840;37.442;2023-04-15T06:34:38;101074.78;;;3.54;26.17
56074;BME280;41950;55.840;37.442;2023-04-15T06:37:05;101097.28;;;3.87;26.38
56074;BME280;41950;55.840;37.442;2023-04-15T06:39:32;101092.47;;;3.97;26.14
56074;BME280;41950;55.840;37.442;2023-04-15T06:41:59;101094.59;;;4.11;26.29
56074;BME280;41950;55.840;37.442;2023-04-15T06:44:26;101105.91;;;4.16;25.81
56074;BME280;41950;55.840;37.442;2023-04-15T06:46:54;101100.69;;;4.13;25.81
56074;BME280;41950;55.840;37.442;2023-04-15T06:49:22;101083.81;;;3.94;25.76
56074;BME280;41950;55.840;37.442;2023-04-15T06:51:49;101114.72;;;3.97;25.19
56074;BME280;41950;55.840;37.442;2023-04-15T06:54:17;101102.16;;;3.79;25.11
56074;BME280;41950;55.840;37.442;2023-04-15T06:56:44;101086.06;;;3.58;25.57
56074;BME280;41950;55.840;37.442;2023-04-15T06:59:11;101111.81;;;3.86;25.75
56074;BME280;41950;55.840;37.442;2023-04-15T07:01:39;101115.88;;;4.07;25.58
56074;BME280;41950;55.840;37.442;2023-04-15T07:04:06;101102.66;;;4.21;25.50
56074;BME280;41950;55.840;37.442;2023-04-15T07:06:33;101107.81;;;4.50;25.50
56074;BME280;41950;55.840;37.442;2023-04-15T07:09:01;101095.88;;;4.52;25.11
56074;BME280;41950;55.840;37.442;2023-04-15T07:11:29;101108.25;;;4.65;24.88
56074;BME280;41950;55.840;37.442;2023-04-15T07:13:57;101079.56;;;4.51;24.65
56074;BME280;41950;55.840;37.442;2023-04-15T07:16:24;101108.94;;;4.59;24.55
56074;BME280;41950;55.840;37.442;2023-04-15T07:18:51;101108.78;;;4.53;24.11
56074;BME280;41950;55.840;37.442;2023-04-15T07:21:18;101094.66;;;4.39;24.00
56074;BME280;41950;55.840;37.442;2023-04-15T07:23:44;101113.81;;;4.50;23.85
56074;BME280;41950;55.840;37.442;2023-04-15T07:26:11;101116.72;;;4.61;24.00
56074;BME280;41950;55.840;37.442;2023-04-15T07:28:39;101094.22;;;4.54;23.33
56074;BME280;41950;55.840;37.442;2023-04-15T07:31:07;101091.59;;;4.52;23.53
56074;BME280;41950;55.840;37.442;2023-04-15T07:33:34;101087.50;;;4.59;23.90
56074;BME280;41950;55.840;37.442;2023-04-15T07:36:01;101109.00;;;4.91;23.89
56074;BME280;41950;55.840;37.442;2023-04-15T07:38:28;101100.97;;;5.10;24.02
56074;BME280;41950;55.840;37.442;2023-04-15T07:40:55;101103.13;;;5.25;24.01
56074;BME280;41950;55.840;37.442;2023-04-15T07:43:22;101109.38;;;5.35;23.56
56074;BME280;41950;55.840;37.442;2023-04-15T07:45:49;101104.84;;;5.26;22.84
56074;BME280;41950;55.840;37.442;2023-04-15T07:48:15;101080.13;;;5.00;23.01
56074;BME280;41950;55.840;37.442;2023-04-15T07:50:42;101091.69;;;5.15;22.55
56074;BME280;41950;55.840;37.442;2023-04-15T07:53:09;101091.00;;;5.21;22.04
56074;BME280;41950;55.840;37.442;2023-04-15T07:55:36;101104.22;;;5.35;22.09
56074;BME280;41950;55.840;37.442;2023-04-15T07:58:03;101100.81;;;5.36;22.64
56074;BME280;41950;55.840;37.442;2023-04-15T08:00:30;101070.25;;;5.16;22.09
56074;BME280;41950;55.840;37.442;2023-04-15T08:02:57;101097.38;;;5.35;22.20
56074;BME280;41950;55.840;37.442;2023-04-15T08:05:25;101098.63;;;5.49;22.53
56074;BME280;41950;55.840;37.442;2023-04-15T08:07:52;101101.84;;;5.75;22.64
56074;BME280;41950;55.840;37.442;2023-04-15T08:10:18;101104.94;;;5.95;22.29
56074;BME280;41950;55.840;37.442;2023-04-15T08:12:46;101060.38;;;6.01;22.08
56074;BME280;41950;55.840;37.442;2023-04-15T08:15:15;101025.88;;;5.94;21.75
56074;BME280;41950;55.840;37.442;2023-04-15T08:17:44;101082.78;;;6.39;22.19
56074;BME280;41950;55.840;37.442;2023-04-15T08:20:12;101078.66;;;6.49;21.44
56074;BME280;41950;55.840;37.442;2023-04-15T08:22:40;101091.59;;;6.50;21.03
56074;BME280;41950;55.840;37.442;2023-04-15T08:25:07;101091.13;;;6.68;21.00
56074;BME280;41950;55.840;37.442;2023-04-15T08:27:35;101097.47;;;6.84;21.78
56074;BME280;41950;55.840;37.442;2023-04-15T08:30:02;101091.25;;;7.17;21.78
56074;BME280;41950;55.840;37.442;2023-04-15T08:32:30;101081.75;;;7.16;20.94
56074;BME280;41950;55.840;37.442;2023-04-15T08:34:57;101064.41;;;7.08;20.68
56074;BME280;41950;55.840;37.442;2023-04-15T08:37:24;101089.56;;;7.19;20.86
56074;BME280;41950;55.840;37.442;2023-04-15T08:39:52;101089.34;;;7.08;20.38
56074;BME280;41950;55.840;37.442;2023-04-15T08:42:26;101061.66;;;6.99;21.19
56074;BME280;41950;55.840;37.442;2023-04-15T08:44:54;101075.94;;;7.27;20.73
56074;BME280;41950;55.840;37.442;2023-04-15T08:47:22;101078.56;;;7.29;20.46
56074;BME280;41950;55.840;37.442;2023-04-15T08:49:54;101060.97;;;7.09;20.31
56074;BME280;41950;55.840;37.442;2023-04-15T08:52:25;101053.94;;;7.01;19.60
56074;BME280;41950;55.840;37.442;2023-04-15T08:54:56;101060.97;;;7.09;19.98
56074;BME280;41950;55.840;37.442;2023-04-15T08:57:30;101073.47;;;7.33;19.71
56074;BME280;41950;55.840;37.442;2023-04-15T08:59:57;101078.09;;;7.51;20.06
56074;BME280;41950;55.840;37.442;2023-04-15T09:02:25;101066.50;;;7.79;19.91
56074;BME280;41950;55.840;37.442;2023-04-15T09:04:52;101046.69;;;7.78;19.82
56074;BME280;41950;55.840;37.442;2023-04-15T09:07:21;101056.34;;;7.91;19.65
56074;BME280;41950;55.840;37.442;2023-04-15T09:09:48;101064.19;;;7.94;19.61
56074;BME280;41950;55.840;37.442;2023-04-15T09:12:15;101044.28;;;7.90;19.50
56074;BME280;41950;55.840;37.442;2023-04-15T09:14:45;101062.56;;;8.02;19.56
56074;BME280;41950;55.840;37.442;2023-04-15T09:17:12;101022.50;;;7.73;19.81
56074;BME280;41950;55.840;37.442;2023-04-15T09:19:44;101057.25;;;7.93;19.31
56074;BME280;41950;55.840;37.442;2023-04-15T09:22:11;101057.28;;;7.95;18.98
56074;BME280;41950;55.840;37.442;2023-04-15T09:24:39;101057.34;;;7.98;18.92
56074;BME280;41950;55.840;37.442;2023-04-15T09:27:07;101062.63;;;8.07;19.17
56074;BME280;41950;55.840;37.442;2023-04-15T09:29:34;101064.47;;;8.14;18.58
56074;BME280;41950;55.840;37.442;2023-04-15T09:32:10;101057.81;;;8.30;18.89
56074;BME280;41950;55.840;37.442;2023-04-15T09:34:37;101035.09;;;8.11;18.54
56074;BME280;41950;55.840;37.442;2023-04-15T09:37:04;101053.47;;;8.29;18.67
56074;BME280;41950;55.840;37.442;2023-04-15T09:39:50;101051.34;;;8.61;18.78
56074;BME280;41950;55.840;37.442;2023-04-15T09:42:18;101056.81;;;8.85;18.89
56074;BME280;41950;55.840;37.442;2023-04-15T09:44:50;101010.16;;;8.78;18.47
56074;BME280;41950;55.840;37.442;2023-04-15T09:47:31;101034.75;;;9.19;18.20
56074;BME280;41950;55.840;37.442;2023-04-15T09:49:59;101063.44;;;9.38;18.29
56074;BME280;41950;55.840;37.442;2023-04-15T09:52:26;101047.72;;;9.21;18.10
56074;BME280;41950;55.840;37.442;2023-04-15T09:54:56;101051.13;;;9.17;18.18
56074;BME280;41950;55.840;37.442;2023-04-15T09:57:23;101050.06;;;8.99;17.78
56074;BME280;41950;55.840;37.442;2023-04-15T09:59:50;101038.88;;;9.04;17.69
56074;BME280;41950;55.840;37.442;2023-04-15T10:02:18;101059.22;;;9.52;18.08
56074;BME280;41950;55.840;37.442;2023-04-15T10:04:47;101049.91;;;9.71;17.93
56074;BME280;41950;55.840;37.442;2023-04-15T10:07:16;101026.75;;;9.97;17.85
56074;BME280;41950;55.840;37.442;2023-04-15T10:09:47;101037.19;;;10.07;17.88
56074;BME280;41950;55.840;37.442;2023-04-15T10:12:18;101040.00;;;10.36;17.50
56074;BME280;41950;55.840;37.442;2023-04-15T10:14:52;101029.69;;;10.45;16.84
56074;BME280;41950;55.840;37.442;2023-04-15T10:17:22;101041.66;;;10.24;16.57
56074;BME280;41950;55.840;37.442;2023-04-15T10:19:53;101053.06;;;10.51;17.20
56074;BME280;41950;55.840;37.442;2023-04-15T10:22:22;101053.22;;;10.93;17.17
56074;BME280;41950;55.840;37.442;2023-04-15T10:24:49;101037.59;;;10.79;15.84
56074;BME280;41950;55.840;37.442;2023-04-15T10:27:17;101047.03;;;10.59;15.70
56074;BME280;41950;55.840;37.442;2023-04-15T10:29:44;101024.44;;;10.38;16.41
56074;BME280;41950;55.840;37.442;2023-04-15T10:32:12;101034.13;;;10.77;15.82
56074;BME280;41950;55.840;37.442;2023-04-15T10:34:39;101021.22;;;11.03;16.20
56074;BME280;41950;55.840;37.442;2023-04-15T10:37:09;101039.47;;;11.61;16.15
56074;BME280;41950;55.840;37.442;2023-04-15T10:39:41;101018.69;;;11.59;15.95
56074;BME280;41950;55.840;37.442;2023-04-15T10:42:11;101035.19;;;11.80;15.86
56074;BME280;41950;55.840;37.442;2023-04-15T10:44:43;101030.84;;;11.79;15.86
56074;BME280;41950;55.840;37.442;2023-04-15T10:47:10;101041.22;;;11.98;15.64
56074;BME280;41950;55.840;37.442;2023-04-15T10:49:46;101039.50;;;12.08;14.64
56074;BME280;41950;55.840;37.442;2023-04-15T10:52:16;101038.63;;;12.06;15.13
56074;BME280;41950;55.840;37.442;2023-04-15T10:54:43;101028.22;;;12.11;15.02
56074;BME280;41950;55.840;37.442;2023-04-15T10:57:16;101026.47;;;12.11;14.65
56074;BME280;41950;55.840;37.442;2023-04-15T11:00:01;101029.03;;;12.19;14.96
56074;BME280;41950;55.840;37.442;2023-04-15T11:02:52;101019.41;;;12.48;15.10
56074;BME280;41950;55.840;37.442;2023-04-15T11:06:07;101010.69;;;12.64;15.23
56074;BME280;41950;55.840;37.442;2023-04-15T11:08:12;101033.06;;;13.02;15.28
56074;BME280;41950;55.840;37.442;2023-04-15T11:15:36;101033.00;;;13.19;14.64
56074;BME280;41950;55.840;37.442;2023-04-15T11:18:09;101028.78;;;12.84;14.87
56074;BME280;41950;55.840;37.442;2023-04-15T11:20:57;101012.38;;;12.72;14.32
56074;BME280;41950;55.840;37.442;2023-04-15T11:23:40;101029.72;;;12.73;14.60
56074;BME280;41950;55.840;37.442;2023-04-15T11:26:12;101009.75;;;12.76;14.52
56074;BME280;41950;55.840;37.442;2023-04-15T11:28:42;101027.06;;;12.82;14.38
56074;BME280;41950;55.840;37.442;2023-04-15T11:31:14;101031.41;;;12.81;14.89
56074;BME280;41950;55.840;37.442;2023-04-15T11:34:01;101019.38;;;12.60;14.63
56074;BME280;41950;55.840;37.442;2023-04-15T11:36:29;101008.91;;;12.68;14.90
56074;BME280;41950;55.840;37.442;2023-04-15T11:38:58;101024.63;;;12.48;14.28
56074;BME280;41950;55.840;37.442;2023-04-15T11:41:25;101007.31;;;12.30;14.93
56074;BME280;41950;55.840;37.442;2023-04-15T11:43:52;100998.63;;;12.36;14.84
56074;BME280;41950;55.840;37.442;2023-04-15T11:46:19;101018.38;;;12.83;14.75
56074;BME280;41950;55.840;37.442;2023-04-15T11:48:47;100976.06;;;12.41;14.64
56074;BME280;41950;55.840;37.442;2023-04-15T11:51:14;101012.53;;;12.35;14.83
56074;BME280;41950;55.840;37.442;2023-04-15T11:53:45;101006.38;;;12.48;14.91
56074;BME280;41950;55.840;37.442;2023-04-15T11:56:18;100995.84;;;12.74;14.97
56074;BME280;41950;55.840;37.442;2023-04-15T11:58:45;100991.44;;;12.91;14.81
56074;BME280;41950;55.840;37.442;2023-04-15T12:01:12;100986.09;;;13.08;14.24
56074;BME280;41950;55.840;37.442;2023-04-15T12:03:40;100979.19;;;13.01;15.28
56074;BME280;41950;55.840;37.442;2023-04-15T12:06:14;101003.38;;;13.27;14.79
56074;BME280;41950;55.840;37.442;2023-04-15T12:14:02;100975.44;;;13.46;14.33
56074;BME280;41950;55.840;37.442;2023-04-15T12:16:28;100953.72;;;13.40;14.57
56074;BME280;41950;55.840;37.442;2023-04-15T12:18:56;100981.38;;;13.59;14.17
56074;BME280;41950;55.840;37.442;2023-04-15T12:21:25;100971.81;;;13.61;14.81
56074;BME280;41950;55.840;37.442;2023-04-15T12:23:55;100955.97;;;13.79;14.97
56074;BME280;41950;55.840;37.442;2023-04-15T12:26:35;100947.28;;;13.80;15.43
56074;BME280;41950;55.840;37.442;2023-04-15T12:29:04;100982.81;;;13.90;14.71
56074;BME280;41950;55.840;37.442;2023-04-15T12:31:30;100961.97;;;13.87;14.86
56074;BME280;41950;55.840;37.442;2023-04-15T12:33:57;100956.03;;;13.76;14.65
56074;BME280;41950;55.840;37.442;2023-04-15T12:36:23;100975.91;;;13.88;13.85
56074;BME280;41950;55.840;37.442;2023-04-15T12:38:49;100976.09;;;13.65;14.61
56074;BME280;41950;55.840;37.442;2023-04-15T12:41:15;100959.69;;;13.57;14.75
56074;BME280;41950;55.840;37.442;2023-04-15T12:43:43;100942.06;;;13.79;15.21
56074;BME280;41950;55.840;37.442;2023-04-15T12:46:09;100984.50;;;13.96;14.57
56074;BME280;41950;55.840;37.442;2023-04-15T12:48:35;100971.47;;;13.98;14.25
56074;BME280;41950;55.840;37.442;2023-04-15T12:51:01;100962.84;;;13.88;14.45
56074;BME280;41950;55.840;37.442;2023-04-15T12:53:26;100982.78;;;13.98;14.97
56074;BME280;41950;55.840;37.442;2023-04-15T12:55:53;100978.66;;;13.73;14.72
56074;BME280;41950;55.840;37.442;2023-04-15T12:58:19;100953.72;;;13.41;14.47
56074;BME280;41950;55.840;37.442;2023-04-15T13:00:45;100977.06;;;13.56;15.10
56074;BME280;41950;55.840;37.442;2023-04-15T13:03:11;100976.13;;;13.64;15.04